createdAt,value
2022-10-22T00:02:20.065Z,96629.92
2022-10-22T00:04:48.825Z,96632.77
2022-10-22T00:07:17.488Z,96625.60
2022-10-22T00:09:44.138Z,96624.01
2022-10-22T00:12:14.858Z,96622.67
2022-10-22T00:14:42.123Z,96625.41
2022-10-22T00:17:11.454Z,96622.38
2022-10-22T00:19:39.298Z,96618.19
2022-10-22T00:22:07.874Z,96618.23
2022-10-22T00:24:37.067Z,96620.02
2022-10-22T00:27:04.621Z,96621.90
2022-10-22T00:29:31.571Z,96622.68
2022-10-22T00:31:58.209Z,96621.67
2022-10-22T00:34:25.517Z,96609.21
2022-10-22T00:36:53.013Z,96612.65
2022-10-22T00:39:23.002Z,96610.77
2022-10-22T00:41:51.975Z,96611.34
2022-10-22T00:44:50.055Z,96610.36
2022-10-22T00:47:18.264Z,96607.33
2022-10-22T00:49:46.347Z,96608.06
2022-10-22T00:52:13.861Z,96602.90
2022-10-22T00:54:41.534Z,96602.88
2022-10-22T00:57:08.919Z,96602.71
2022-10-22T00:59:37.409Z,96604.95
2022-10-22T01:02:04.011Z,96602.55
2022-10-22T01:04:30.571Z,96606.97
2022-10-22T01:06:59.492Z,96601.76
2022-10-22T01:09:41.865Z,96591.28
2022-10-22T01:12:34.583Z,96596.83
2022-10-22T01:15:16.006Z,96590.89
2022-10-22T01:18:02.305Z,96594.16
2022-10-22T01:20:52.711Z,96592.84
2022-10-22T01:23:41.484Z,96594.27
2022-10-22T01:26:32.850Z,96592.35
2022-10-22T01:29:10.876Z,96582.30
2022-10-22T01:31:44.105Z,96586.11
2022-10-22T01:34:15.965Z,96579.09
2022-10-22T01:36:44.959Z,96582.76
2022-10-22T01:39:14.757Z,96581.29
2022-10-22T01:41:45.462Z,96580.58
2022-10-22T01:44:29.062Z,96582.63
2022-10-22T01:47:15.630Z,96583.98
2022-10-22T01:50:05.311Z,96580.14
2022-10-22T01:52:52.475Z,96575.70
2022-10-22T01:55:30.301Z,96575.01
2022-10-22T01:58:13.728Z,96570.83
2022-10-22T02:00:48.087Z,96572.65
2022-10-22T02:03:23.010Z,96568.28
2022-10-22T02:05:56.989Z,96563.28
2022-10-22T02:08:28.092Z,96566.36
2022-10-22T02:10:56.918Z,96561.71
2022-10-22T02:13:36.945Z,96563.78
2022-10-22T02:16:07.811Z,96566.34
2022-10-22T02:18:39.452Z,96568.33
2022-10-22T02:23:33.739Z,96578.97
2022-10-22T02:26:06.805Z,96574.68
2022-10-22T02:28:42.903Z,96570.00
2022-10-22T02:31:16.432Z,96568.92
2022-10-22T02:33:48.251Z,96566.30
2022-10-22T02:36:16.993Z,96573.36
2022-10-22T02:38:46.950Z,96573.89
2022-10-22T02:41:15.562Z,96570.69
2022-10-22T02:43:43.753Z,96566.64
2022-10-22T02:46:11.179Z,96562.14
2022-10-22T02:48:37.658Z,96563.63
2022-10-22T02:51:04.381Z,96567.39
2022-10-22T02:53:33.572Z,96562.13
2022-10-22T02:56:00.189Z,96554.89
2022-10-22T02:58:27.079Z,96555.88
2022-10-22T03:00:54.028Z,96553.86
2022-10-22T03:03:20.715Z,96548.00
2022-10-22T03:05:47.368Z,96553.40
2022-10-22T03:08:13.911Z,96543.20
2022-10-22T03:10:40.675Z,96540.73
2022-10-22T03:13:07.219Z,96539.75
2022-10-22T03:15:33.779Z,96541.89
2022-10-22T03:18:00.595Z,96535.88
2022-10-22T03:20:27.247Z,96543.77
2022-10-22T03:22:55.634Z,96550.17
2022-10-22T03:25:24.790Z,96542.73
2022-10-22T03:27:55.442Z,96546.06
2022-10-22T03:30:22.011Z,96550.46
2022-10-22T03:32:48.589Z,96548.76
2022-10-22T03:35:15.233Z,96549.59
2022-10-22T03:37:42.301Z,96548.18
2022-10-22T03:40:10.829Z,96547.95
2022-10-22T03:42:37.685Z,96552.94
2022-10-22T03:45:05.107Z,96557.89
2022-10-22T03:47:31.667Z,96549.17
2022-10-22T03:49:58.245Z,96540.86
2022-10-22T03:52:25.141Z,96545.70
2022-10-22T03:54:51.752Z,96549.74
2022-10-22T03:57:18.649Z,96542.03
2022-10-22T03:59:46.123Z,96545.76
2022-10-22T04:02:14.084Z,96550.73
2022-10-22T04:04:40.918Z,96544.20
2022-10-22T04:07:08.193Z,96550.42
2022-10-22T04:09:35.088Z,96553.66
2022-10-22T04:12:05.322Z,96550.70
2022-10-22T04:14:32.230Z,96552.30
2022-10-22T04:16:58.864Z,96552.73
2022-10-22T04:19:25.439Z,96540.66
2022-10-22T04:21:51.982Z,96543.47
2022-10-22T04:24:18.593Z,96550.72
2022-10-22T04:26:45.181Z,96539.33
2022-10-22T04:29:15.934Z,96537.23
2022-10-22T04:31:43.114Z,96540.20
2022-10-22T04:34:11.004Z,96528.43
2022-10-22T04:36:37.623Z,96544.64
2022-10-22T04:39:05.384Z,96532.46
2022-10-22T04:41:35.494Z,96538.20
2022-10-22T04:44:03.162Z,96546.05
2022-10-22T04:46:32.426Z,96538.38
2022-10-22T04:48:59.437Z,96551.45
2022-10-22T04:51:27.314Z,96543.86
2022-10-22T04:53:54.298Z,96548.17
2022-10-22T04:56:24.276Z,96545.11
2022-10-22T04:58:54.158Z,96547.05
2022-10-22T05:01:24.665Z,96544.50
2022-10-22T05:03:53.162Z,96549.98
2022-10-22T05:06:21.092Z,96546.91
2022-10-22T05:08:51.510Z,96547.23
2022-10-22T05:11:21.821Z,96550.34
2022-10-22T05:13:49.235Z,96558.50
2022-10-22T05:16:16.185Z,96556.42
2022-10-22T05:18:44.699Z,96559.51
2022-10-22T05:21:14.561Z,96562.03
2022-10-22T05:23:41.767Z,96557.20
2022-10-22T05:26:10.539Z,96559.55
2022-10-22T05:28:38.695Z,96559.88
2022-10-22T05:31:08.086Z,96561.31
2022-10-22T05:33:35.145Z,96565.01
2022-10-22T05:36:04.337Z,96568.56
2022-10-22T05:38:32.779Z,96566.86
2022-10-22T05:41:01.734Z,96568.17
2022-10-22T05:43:29.097Z,96576.08
2022-10-22T05:45:56.167Z,96584.84
2022-10-22T05:48:22.849Z,96581.95
2022-10-22T05:50:50.305Z,96582.01
2022-10-22T05:53:18.205Z,96580.86
2022-10-22T05:55:45.501Z,96588.73
2022-10-22T05:58:13.124Z,96587.98
2022-10-22T06:00:40.272Z,96588.92
2022-10-22T06:03:07.004Z,96586.70
2022-10-22T06:05:35.846Z,96586.32
2022-10-22T06:08:03.651Z,96587.83
2022-10-22T06:10:31.061Z,96591.02
2022-10-22T06:12:57.765Z,96591.42
2022-10-22T06:15:24.316Z,96592.59
2022-10-22T06:17:50.947Z,96594.19
2022-10-22T06:20:17.868Z,96598.18
2022-10-22T06:22:44.728Z,96598.39
2022-10-22T06:25:11.902Z,96594.88
2022-10-22T06:27:38.691Z,96592.05
2022-10-22T06:30:06.090Z,96587.67
2022-10-22T06:32:32.708Z,96581.64
2022-10-22T06:34:59.456Z,96572.95
2022-10-22T06:37:26.277Z,96572.63
2022-10-22T06:39:53.022Z,96570.05
2022-10-22T06:42:19.810Z,96568.30
2022-10-22T06:44:47.733Z,96563.44
2022-10-22T06:47:14.465Z,96563.34
2022-10-22T06:49:41.998Z,96560.14
2022-10-22T06:52:08.640Z,96557.93
2022-10-22T06:54:35.270Z,96560.38
2022-10-22T06:57:01.888Z,96565.30
2022-10-22T06:59:28.680Z,96566.65
2022-10-22T07:01:55.284Z,96569.11
2022-10-22T07:04:22.030Z,96573.91
2022-10-22T07:06:48.696Z,96580.83
2022-10-22T07:09:15.520Z,96575.65
2022-10-22T07:11:45.211Z,96571.95
2022-10-22T07:14:13.288Z,96575.79
2022-10-22T07:16:50.851Z,96576.46
2022-10-22T07:19:17.534Z,96580.52
2022-10-22T07:21:44.265Z,96583.05
2022-10-22T07:24:11.197Z,96578.96
2022-10-22T07:26:37.871Z,96575.23
2022-10-22T07:29:05.832Z,96579.43
2022-10-22T07:31:32.388Z,96582.02
2022-10-22T07:33:59.016Z,96584.15
2022-10-22T07:36:26.171Z,96579.34
2022-10-22T07:38:55.966Z,96579.12
2022-10-22T07:41:25.622Z,96581.09
2022-10-22T07:43:52.305Z,96580.38
2022-10-22T07:46:19.812Z,96574.40
2022-10-22T07:48:46.699Z,96574.73
2022-10-22T07:51:14.722Z,96572.68
2022-10-22T07:53:41.400Z,96573.79
2022-10-22T07:56:08.649Z,96577.53
2022-10-22T07:58:35.557Z,96578.17
2022-10-22T08:01:05.034Z,96578.41
2022-10-22T08:03:32.471Z,96580.77
2022-10-22T08:06:00.582Z,96579.52
2022-10-22T08:08:30.719Z,96577.56
2022-10-22T08:11:00.087Z,96582.27
2022-10-22T08:13:29.738Z,96583.30
2022-10-22T08:15:57.995Z,96584.60
2022-10-22T08:18:25.856Z,96588.99
2022-10-22T08:20:52.885Z,96590.68
2022-10-22T08:23:24.409Z,96590.48
2022-10-22T08:25:54.413Z,96594.25
2022-10-22T08:28:22.113Z,96592.83
2022-10-22T08:30:49.329Z,96584.81
2022-10-22T08:33:15.993Z,96592.74
2022-10-22T08:35:49.040Z,96591.17
2022-10-22T08:38:15.549Z,96584.70
2022-10-22T08:40:46.796Z,96595.31
2022-10-22T08:43:52.295Z,96596.66
2022-10-22T08:46:36.716Z,96596.48
2022-10-22T08:51:39.891Z,96606.36
2022-10-22T08:54:26.511Z,96604.16
2022-10-22T08:57:22.318Z,96605.17
2022-10-22T09:00:12.981Z,96604.18
2022-10-22T09:03:02.522Z,96600.93
2022-10-22T09:05:55.291Z,96613.98
2022-10-22T09:08:22.629Z,96618.35
2022-10-22T09:10:55.816Z,96619.91
2022-10-22T09:13:23.525Z,96619.92
2022-10-22T09:15:55.726Z,96617.11
2022-10-22T09:18:53.551Z,96617.34
2022-10-22T09:21:43.632Z,96616.65
2022-10-22T09:24:32.177Z,96614.05
2022-10-22T09:27:02.066Z,96619.92
2022-10-22T09:29:37.434Z,96620.23
2022-10-22T09:32:04.759Z,96610.74
2022-10-22T09:34:32.127Z,96611.86
2022-10-22T09:37:17.742Z,96623.48
2022-10-22T09:39:47.336Z,96613.70
2022-10-22T09:42:16.231Z,96605.12
2022-10-22T09:44:46.170Z,96611.86
2022-10-22T09:47:43.446Z,96610.09
2022-10-22T09:50:40.482Z,96602.48
2022-10-22T09:53:28.542Z,96608.48
2022-10-22T09:55:58.472Z,96605.63
2022-10-22T09:58:26.154Z,96602.69
2022-10-22T10:00:56.637Z,96604.33
2022-10-22T10:03:27.459Z,96607.52
2022-10-22T10:06:01.554Z,96606.98
2022-10-22T10:08:34.137Z,96606.43
2022-10-22T10:11:34.454Z,96598.90
2022-10-22T10:14:15.149Z,96598.50
2022-10-22T10:16:55.709Z,96597.88
2022-10-22T10:19:49.572Z,96598.82
2022-10-22T10:22:47.420Z,96596.45
2022-10-22T10:25:31.430Z,96592.86
2022-10-22T10:28:12.305Z,96599.17
2022-10-22T10:30:51.260Z,96595.05
2022-10-22T10:33:37.605Z,96590.66
2022-10-22T10:36:16.698Z,96589.83
2022-10-22T10:39:00.782Z,96596.38
2022-10-22T10:41:48.311Z,96597.86
2022-10-22T10:44:36.590Z,96596.84
2022-10-22T10:47:30.526Z,96595.73
2022-10-22T10:50:19.037Z,96598.11
2022-10-22T10:53:09.597Z,96593.20
2022-10-22T10:55:47.754Z,96594.59
2022-10-22T10:58:36.976Z,96595.83
2022-10-22T11:01:19.238Z,96589.70
2022-10-22T11:04:09.969Z,96584.61
2022-10-22T11:06:38.716Z,96580.34
2022-10-22T11:09:18.052Z,96576.67
2022-10-22T11:11:51.543Z,96573.82
2022-10-22T11:14:26.467Z,96575.09
2022-10-22T11:17:03.850Z,96572.98
2022-10-22T11:19:53.921Z,96573.88
2022-10-22T11:22:31.498Z,96570.30
2022-10-22T11:25:14.953Z,96567.39
2022-10-22T11:27:54.052Z,96565.84
2022-10-22T11:30:23.393Z,96565.55
2022-10-22T11:32:55.603Z,96556.67
2022-10-22T11:35:28.446Z,96553.45
2022-10-22T11:37:57.332Z,96556.87
2022-10-22T11:40:46.672Z,96560.66
2022-10-22T11:43:32.009Z,96559.88
2022-10-22T11:46:32.436Z,96554.80
2022-10-22T11:49:21.464Z,96553.89
2022-10-22T11:51:48.051Z,96542.83
2022-10-22T11:54:41.953Z,96540.02
2022-10-22T11:57:19.313Z,96547.56
2022-10-22T11:59:52.078Z,96546.27
2022-10-22T12:02:42.476Z,96544.69
2022-10-22T12:05:31.465Z,96549.94
2022-10-22T12:08:05.829Z,96546.79
2022-10-22T12:10:48.023Z,96548.11
2022-10-22T12:13:23.941Z,96546.35
2022-10-22T12:15:55.853Z,96546.09
2022-10-22T12:18:27.041Z,96545.89
2022-10-22T12:20:54.652Z,96544.45
2022-10-22T12:23:28.345Z,96540.92
2022-10-22T12:25:54.965Z,96536.29
2022-10-22T12:28:22.128Z,96538.66
2022-10-22T12:30:48.766Z,96543.90
2022-10-22T12:33:22.816Z,96544.80
2022-10-22T12:35:53.530Z,96538.63
2022-10-22T12:38:22.382Z,96539.33
2022-10-22T12:40:53.472Z,96538.95
2022-10-22T12:43:29.320Z,96533.10
2022-10-22T12:46:00.249Z,96532.09
2022-10-22T12:48:31.392Z,96531.65
2022-10-22T12:51:00.549Z,96530.02
2022-10-22T12:53:34.570Z,96525.92
2022-10-22T12:56:05.885Z,96523.65
2022-10-22T12:58:39.031Z,96526.02
2022-10-22T13:01:06.145Z,96525.84
2022-10-22T13:03:38.114Z,96521.75
2022-10-22T13:06:14.284Z,96512.95
2022-10-22T13:08:40.819Z,96503.80
2022-10-22T13:11:10.533Z,96499.38
2022-10-22T13:13:43.076Z,96497.17
2022-10-22T13:16:20.419Z,96496.89
2022-10-22T13:18:48.194Z,96499.67
2022-10-22T13:21:33.237Z,96503.94
2022-10-22T13:24:02.939Z,96510.14
2022-10-22T13:26:33.733Z,96506.85
2022-10-22T13:29:02.095Z,96500.61
2022-10-22T13:31:32.833Z,96499.56
2022-10-22T13:34:08.534Z,96500.00
2022-10-22T13:36:37.548Z,96490.52
2022-10-22T13:39:07.469Z,96481.40
2022-10-22T13:44:04.462Z,96477.16
2022-10-22T13:46:31.020Z,96480.09
2022-10-22T13:48:59.282Z,96481.33
2022-10-22T13:51:34.228Z,96479.73
2022-10-22T13:54:02.900Z,96473.65
2022-10-22T13:56:29.340Z,96468.57
2022-10-22T13:58:55.819Z,96469.71
2022-10-22T14:01:26.003Z,96475.20
2022-10-22T14:03:57.186Z,96470.16
2022-10-22T14:06:28.130Z,96469.08
2022-10-22T14:08:59.250Z,96468.48
2022-10-22T14:11:26.775Z,96458.85
2022-10-22T14:13:54.119Z,96464.34
2022-10-22T14:16:23.417Z,96467.45
2022-10-22T14:18:50.632Z,96467.98
2022-10-22T14:21:18.549Z,96467.13
2022-10-22T14:23:47.089Z,96463.87
2022-10-22T14:26:32.480Z,96461.05
2022-10-22T14:29:15.951Z,96457.75
2022-10-22T14:31:44.363Z,96448.33
2022-10-22T14:34:14.631Z,96446.52
2022-10-22T14:36:43.110Z,96440.36
2022-10-22T14:39:09.665Z,96440.57
2022-10-22T14:41:37.140Z,96445.22
2022-10-22T14:44:11.913Z,96440.63
2022-10-22T14:46:39.627Z,96442.23
2022-10-22T14:49:06.063Z,96444.49
2022-10-22T14:51:32.572Z,96449.11
2022-10-22T14:53:59.107Z,96448.04
2022-10-22T14:56:25.580Z,96443.15
2022-10-22T14:58:53.135Z,96433.91
2022-10-22T15:01:22.552Z,96436.23
2022-10-22T15:03:49.150Z,96443.92
2022-10-22T15:06:15.971Z,96445.80
2022-10-22T15:08:44.556Z,96443.19
2022-10-22T15:11:12.645Z,96442.80
2022-10-22T15:13:40.721Z,96441.95
2022-10-22T15:16:09.801Z,96434.89
2022-10-22T15:18:36.582Z,96439.79
2022-10-22T15:21:15.034Z,96442.48
2022-10-22T15:23:42.993Z,96432.67
2022-10-22T15:26:11.230Z,96436.77
2022-10-22T15:28:39.174Z,96430.44
2022-10-22T15:31:06.666Z,96430.91
2022-10-22T15:33:33.378Z,96428.23
2022-10-22T15:36:13.695Z,96427.94
2022-10-22T15:38:41.213Z,96424.30
2022-10-22T15:41:09.516Z,96427.50
2022-10-22T15:43:36.757Z,96431.15
2022-10-22T15:46:13.683Z,96441.99
2022-10-22T15:48:41.129Z,96446.28
2022-10-22T15:51:10.720Z,96442.27
2022-10-22T15:53:38.219Z,96435.81
2022-10-22T15:56:05.105Z,96439.94
2022-10-22T15:58:34.631Z,96433.98
2022-10-22T16:01:07.576Z,96432.71
2022-10-22T16:03:34.933Z,96434.10
2022-10-22T16:06:02.208Z,96438.33
2022-10-22T16:08:29.419Z,96434.59
2022-10-22T16:10:57.947Z,96426.20
2022-10-22T16:13:25.954Z,96426.89
2022-10-22T16:15:53.836Z,96430.17
2022-10-22T16:18:21.036Z,96429.95
2022-10-22T16:20:47.700Z,96431.02
2022-10-22T16:23:18.095Z,96427.84
2022-10-22T16:25:45.681Z,96428.30
2022-10-22T16:28:12.438Z,96429.15
2022-10-22T16:30:39.956Z,96428.32
2022-10-22T16:33:07.615Z,96431.02
2022-10-22T16:35:35.117Z,96426.98
2022-10-22T16:38:01.963Z,96430.13
2022-10-22T16:40:28.552Z,96427.91
2022-10-22T16:42:55.205Z,96423.38
2022-10-22T16:45:21.835Z,96419.73
2022-10-22T16:47:49.031Z,96423.26
2022-10-22T16:50:15.724Z,96422.84
2022-10-22T16:52:50.330Z,96421.67
2022-10-22T16:55:17.463Z,96420.94
2022-10-22T16:57:51.244Z,96421.31
2022-10-22T17:00:19.253Z,96420.53
2022-10-22T17:02:52.124Z,96422.49
2022-10-22T17:05:19.599Z,96420.07
2022-10-22T17:07:46.442Z,96420.92
2022-10-22T17:10:13.581Z,96416.92
2022-10-22T17:12:40.672Z,96416.91
2022-10-22T17:15:08.138Z,96428.52
2022-10-22T17:17:35.078Z,96430.21
2022-10-22T17:20:01.917Z,96426.59
2022-10-22T17:22:28.625Z,96424.26
2022-10-22T17:25:07.364Z,96424.73
2022-10-22T17:27:34.002Z,96427.00
2022-10-22T17:30:00.518Z,96428.99
2022-10-22T17:32:28.625Z,96431.95
2022-10-22T17:34:55.556Z,96436.23
2022-10-22T17:37:22.720Z,96431.91
2022-10-22T17:39:49.368Z,96434.28
2022-10-22T17:42:16.413Z,96429.27
2022-10-22T17:44:42.973Z,96427.69
2022-10-22T17:47:09.701Z,96428.05
2022-10-22T17:49:36.306Z,96433.48
2022-10-22T17:52:03.139Z,96427.80
2022-10-22T17:54:29.872Z,96426.05
2022-10-22T17:56:56.400Z,96417.71
2022-10-22T17:59:22.925Z,96406.16
2022-10-22T18:01:49.673Z,96412.13
2022-10-22T18:04:25.239Z,96409.91
2022-10-22T18:07:08.076Z,96399.79
2022-10-22T18:09:34.809Z,96389.50
2022-10-22T18:12:01.581Z,96384.07
2022-10-22T18:14:28.835Z,96389.14
2022-10-22T18:16:55.468Z,96386.67
2022-10-22T18:19:23.945Z,96386.45
2022-10-22T18:21:50.813Z,96383.29
2022-10-22T18:24:18.118Z,96388.30
2022-10-22T18:26:46.949Z,96391.41
2022-10-22T18:29:16.339Z,96376.80
2022-10-22T18:31:43.622Z,96370.05
2022-10-22T18:34:11.011Z,96372.64
2022-10-22T18:36:37.980Z,96368.33
2022-10-22T18:39:04.763Z,96359.93
2022-10-22T18:41:32.761Z,96359.57
2022-10-22T18:44:02.020Z,96364.59
2022-10-22T18:46:32.107Z,96367.02
2022-10-22T18:48:58.839Z,96368.49
2022-10-22T18:51:30.047Z,96357.00
2022-10-22T18:54:05.521Z,96355.52
2022-10-22T18:56:44.201Z,96366.80
2022-10-22T18:59:18.649Z,96368.13
2022-10-22T19:01:45.253Z,96368.12
2022-10-22T19:04:13.116Z,96366.07
2022-10-22T19:06:42.996Z,96360.85
2022-10-22T19:09:13.124Z,96361.64
2022-10-22T19:11:39.595Z,96372.83
2022-10-22T19:14:05.987Z,96366.45
2022-10-22T19:16:34.368Z,96369.66
2022-10-22T19:19:03.648Z,96371.55
2022-10-22T19:21:31.568Z,96360.08
2022-10-22T19:23:59.304Z,96354.95
2022-10-22T19:26:28.393Z,96360.02
2022-10-22T19:28:56.377Z,96369.71
2022-10-22T19:31:26.727Z,96362.33
2022-10-22T19:33:54.745Z,96366.16
2022-10-22T19:36:24.566Z,96376.23
2022-10-22T19:38:51.654Z,96380.60
2022-10-22T19:41:25.641Z,96372.27
2022-10-22T19:43:54.280Z,96360.23
2022-10-22T19:46:21.941Z,96347.45
2022-10-22T19:48:50.549Z,96350.27
2022-10-22T19:51:22.280Z,96364.96
2022-10-22T19:53:49.942Z,96367.96
2022-10-22T19:56:19.445Z,96370.88
2022-10-22T19:58:46.206Z,96374.26
2022-10-22T20:01:16.494Z,96373.61
2022-10-22T20:03:43.345Z,96374.77
2022-10-22T20:06:12.165Z,96374.08
2022-10-22T20:08:39.240Z,96376.61
2022-10-22T20:11:10.119Z,96372.82
2022-10-22T20:16:04.924Z,96368.70
2022-10-22T20:18:33.540Z,96370.80
2022-10-22T20:21:04.896Z,96360.11
2022-10-22T20:23:32.532Z,96357.31
2022-10-22T20:25:59.642Z,96361.22
2022-10-22T20:28:26.340Z,96362.90
2022-10-22T20:30:52.879Z,96368.48
2022-10-22T20:33:19.500Z,96378.70
2022-10-22T20:35:46.263Z,96371.09
2022-10-22T20:38:14.505Z,96364.33
2022-10-22T20:40:41.331Z,96381.30
2022-10-22T20:43:13.428Z,96380.08
2022-10-22T20:45:39.945Z,96366.42
2022-10-22T20:48:06.737Z,96367.15
2022-10-22T20:50:33.559Z,96372.31
2022-10-22T20:53:00.122Z,96368.17
2022-10-22T20:55:27.074Z,96363.02
2022-10-22T20:57:54.588Z,96361.17
2022-10-22T21:00:21.262Z,96360.55
2022-10-22T21:02:47.789Z,96366.08
2022-10-22T21:05:14.529Z,96370.08
2022-10-22T21:07:41.521Z,96369.85
2022-10-22T21:10:08.511Z,96371.75
2022-10-22T21:12:35.410Z,96369.84
2022-10-22T21:15:01.990Z,96365.52
2022-10-22T21:17:28.623Z,96364.19
2022-10-22T21:19:55.228Z,96363.61
2022-10-22T21:22:21.807Z,96366.45
2022-10-22T21:24:48.818Z,96366.89
2022-10-22T21:27:15.582Z,96365.01
2022-10-22T21:29:42.227Z,96366.17
2022-10-22T21:32:08.920Z,96367.96
2022-10-22T21:34:38.811Z,96367.34
2022-10-22T21:37:05.902Z,96364.77
2022-10-22T21:39:32.442Z,96366.25
2022-10-22T21:41:59.083Z,96367.20
2022-10-22T21:44:25.669Z,96368.09
2022-10-22T21:46:52.734Z,96376.11
2022-10-22T21:49:19.420Z,96378.84
2022-10-22T21:51:46.191Z,96378.95
2022-10-22T21:54:12.815Z,96376.80
2022-10-22T21:56:40.949Z,96378.47
2022-10-22T21:59:07.659Z,96375.41
2022-10-22T22:01:34.822Z,96375.02
2022-10-22T22:04:01.792Z,96376.11
2022-10-22T22:06:33.202Z,96380.25
2022-10-22T22:09:03.512Z,96384.96
2022-10-22T22:11:30.498Z,96382.73
2022-10-22T22:13:58.054Z,96385.86
2022-10-22T22:16:28.848Z,96378.26
2022-10-22T22:18:59.770Z,96376.27
2022-10-22T22:21:26.978Z,96371.69
2022-10-22T22:23:53.748Z,96369.48
2022-10-22T22:26:26.694Z,96371.21
2022-10-22T22:28:58.436Z,96368.64
2022-10-22T22:31:29.111Z,96375.91
2022-10-22T22:34:13.968Z,96379.96
2022-10-22T22:36:44.769Z,96377.99
2022-10-22T22:39:14.115Z,96389.74
2022-10-22T22:41:42.096Z,96396.30
2022-10-22T22:44:09.029Z,96394.17
2022-10-22T22:46:35.813Z,96399.23
2022-10-22T22:49:03.527Z,96395.94
2022-10-22T22:51:31.058Z,96392.86
2022-10-22T22:53:59.610Z,96393.95
2022-10-22T22:56:28.830Z,96395.79
2022-10-22T22:58:55.857Z,96400.49
2022-10-22T23:01:27.815Z,96400.33
2022-10-22T23:03:59.299Z,96401.48
2022-10-22T23:06:28.641Z,96405.37
2022-10-22T23:08:55.869Z,96404.46
2022-10-22T23:11:24.438Z,96406.61
2022-10-22T23:13:54.352Z,96410.02
2022-10-22T23:16:23.230Z,96414.78
2022-10-22T23:18:52.613Z,96417.31
2022-10-22T23:21:22.311Z,96422.91
2022-10-22T23:23:52.794Z,96422.66
2022-10-22T23:26:24.565Z,96426.82
2022-10-22T23:28:51.489Z,96424.89
2022-10-22T23:31:21.121Z,96423.66
2022-10-22T23:33:48.261Z,96427.71
2022-10-22T23:36:15.175Z,96433.86
2022-10-22T23:38:42.948Z,96445.13
2022-10-22T23:41:12.784Z,96433.73
2022-10-22T23:43:39.573Z,96439.43
2022-10-22T23:46:09.880Z,96445.34
2022-10-22T23:48:38.628Z,96441.88
2022-10-22T23:51:09.639Z,96440.61
2022-10-22T23:53:36.815Z,96444.98
2022-10-22T23:56:06.734Z,96447.35
2022-10-22T23:58:34.695Z,96449.57
